createdAt,value
2018-11-20T00:01:29.410Z,2.90
2018-11-20T00:04:25.699Z,2.90
2018-11-20T00:10:07.680Z,2.90
2018-11-20T00:13:04.270Z,2.90
2018-11-20T00:15:59.049Z,2.90
2018-11-20T00:18:50.054Z,2.90
2018-11-20T00:21:35.831Z,2.80
2018-11-20T00:24:30.746Z,2.80
2018-11-20T00:27:25.543Z,2.80
2018-11-20T00:30:16.232Z,2.80
2018-11-20T00:33:09.287Z,2.70
2018-11-20T00:38:56.778Z,2.70
2018-11-20T00:41:47.472Z,2.70
2018-11-20T00:44:42.030Z,2.60
2018-11-20T00:47:38.701Z,2.60
2018-11-20T00:50:31.832Z,2.60
2018-11-20T00:53:02.937Z,2.50
2018-11-20T00:55:57.276Z,2.50
2018-11-20T00:58:50.940Z,2.50
2018-11-20T01:01:47.438Z,2.50
2018-11-20T01:04:42.844Z,2.50
2018-11-20T01:07:16.304Z,2.50
2018-11-20T01:10:14.823Z,2.50
2018-11-20T01:13:13.907Z,2.50
2018-11-20T01:16:04.845Z,2.50
2018-11-20T01:18:58.045Z,2.50
2018-11-20T01:24:40.127Z,2.50
2018-11-20T01:27:29.550Z,2.50
2018-11-20T01:30:24.309Z,2.50
2018-11-20T01:33:14.119Z,2.50
2018-11-20T01:36:07.393Z,2.50
2018-11-20T01:39:04.061Z,2.50
2018-11-20T01:41:57.546Z,2.50
2018-11-20T01:44:51.826Z,2.50
2018-11-20T01:47:43.972Z,2.50
2018-11-20T01:50:15.556Z,2.50
2018-11-20T01:53:06.867Z,2.50
2018-11-20T01:55:57.825Z,2.60
2018-11-20T01:58:49.396Z,2.60
2018-11-20T02:01:42.600Z,2.60
2018-11-20T02:04:29.405Z,2.60
2018-11-20T02:07:22.814Z,2.60
2018-11-20T02:10:15.844Z,2.60
2018-11-20T02:15:43.172Z,2.60
2018-11-20T02:18:16.641Z,2.60
2018-11-20T02:20:54.658Z,2.60
2018-11-20T02:23:49.558Z,2.60
2018-11-20T02:26:42.886Z,2.60
2018-11-20T02:29:33.597Z,2.60
2018-11-20T02:32:15.715Z,2.60
2018-11-20T02:35:08.694Z,2.60
2018-11-20T02:37:59.658Z,2.60
2018-11-20T02:40:30.225Z,2.60
2018-11-20T02:43:24.304Z,2.60
2018-11-20T02:48:53.942Z,2.50
2018-11-20T02:51:45.985Z,2.50
2018-11-20T02:54:39.038Z,2.50
2018-11-20T02:57:08.256Z,2.50
2018-11-20T03:00:01.187Z,2.50
2018-11-20T03:02:59.505Z,2.50
2018-11-20T03:05:52.718Z,2.50
2018-11-20T03:08:36.240Z,2.50
2018-11-20T03:11:33.273Z,2.50
2018-11-20T03:14:26.504Z,2.50
2018-11-20T03:17:18.096Z,2.50
2018-11-20T03:20:07.934Z,2.40
2018-11-20T03:22:58.520Z,2.40
2018-11-20T03:25:59.518Z,2.50
2018-11-20T03:28:52.996Z,2.50
2018-11-20T03:31:45.299Z,2.50
2018-11-20T03:34:37.480Z,2.50
2018-11-20T03:37:28.252Z,2.50
2018-11-20T03:40:23.095Z,2.50
2018-11-20T03:45:48.360Z,2.60
2018-11-20T03:48:40.415Z,2.60
2018-11-20T03:51:33.999Z,2.60
2018-11-20T03:54:27.230Z,2.60
2018-11-20T03:57:21.021Z,2.60
2018-11-20T04:00:17.686Z,2.60
2018-11-20T04:03:10.434Z,2.70
2018-11-20T04:06:02.078Z,2.70
2018-11-20T04:08:59.342Z,2.70
2018-11-20T04:11:35.083Z,2.70
2018-11-20T04:14:30.349Z,2.70
2018-11-20T04:19:58.371Z,2.70
2018-11-20T04:22:28.878Z,2.80
2018-11-20T04:25:17.290Z,2.80
2018-11-20T04:28:13.970Z,2.80
2018-11-20T04:30:56.348Z,2.80
2018-11-20T04:33:57.876Z,2.80
2018-11-20T04:36:54.480Z,2.80
2018-11-20T04:39:48.292Z,2.80
2018-11-20T04:42:38.691Z,2.80
2018-11-20T04:45:32.004Z,2.80
2018-11-20T04:48:25.377Z,2.80
2018-11-20T04:51:09.078Z,2.80
2018-11-20T04:54:01.207Z,2.80
2018-11-20T04:56:54.199Z,2.70
2018-11-20T04:59:47.636Z,2.70
2018-11-20T05:02:21.576Z,2.70
2018-11-20T05:05:09.685Z,2.60
2018-11-20T05:10:38.687Z,2.60
2018-11-20T05:13:12.420Z,2.50
2018-11-20T05:15:46.928Z,2.50
2018-11-20T05:18:24.678Z,2.50
2018-11-20T05:24:05.540Z,2.40
2018-11-20T05:26:59.731Z,2.40
2018-11-20T05:29:30.814Z,2.40
2018-11-20T05:32:04.273Z,2.40
2018-11-20T05:34:54.901Z,2.50
2018-11-20T05:37:45.181Z,2.50
2018-11-20T05:40:38.885Z,2.40
2018-11-20T05:43:37.955Z,2.40
2018-11-20T05:46:32.117Z,2.30
2018-11-20T05:49:29.240Z,2.30
2018-11-20T05:52:19.958Z,2.30
2018-11-20T05:55:14.961Z,2.30
2018-11-20T05:57:42.836Z,2.20
2018-11-20T06:00:34.610Z,2.20
2018-11-20T06:03:27.751Z,2.20
2018-11-20T06:06:02.270Z,2.20
2018-11-20T06:08:36.828Z,2.20
2018-11-20T06:11:27.745Z,2.20
2018-11-20T06:14:19.043Z,2.10
2018-11-20T06:17:12.399Z,2.10
2018-11-20T06:19:53.912Z,2.10
2018-11-20T06:22:44.702Z,2.10
2018-11-20T06:25:43.510Z,2.10
2018-11-20T06:28:35.070Z,2.10
2018-11-20T06:31:05.919Z,2.10
2018-11-20T06:33:59.071Z,2.10
2018-11-20T06:36:29.705Z,2.10
2018-11-20T06:39:20.437Z,2.10
2018-11-20T06:42:17.128Z,2.10
2018-11-20T06:45:10.236Z,2.10
2018-11-20T06:47:43.740Z,2.10
2018-11-20T06:50:17.250Z,2.10
2018-11-20T06:53:11.445Z,2.10
2018-11-20T06:56:07.708Z,2.10
2018-11-20T06:58:35.721Z,2.10
2018-11-20T07:07:15.714Z,2.10
2018-11-20T07:15:31.409Z,2.20
2018-11-20T07:21:14.822Z,2.20
2018-11-20T07:24:05.886Z,2.20
2018-11-20T07:26:58.965Z,2.20
2018-11-20T07:29:45.175Z,2.20
2018-11-20T07:32:41.208Z,2.20
2018-11-20T07:35:14.723Z,2.30
2018-11-20T07:38:06.705Z,2.30
2018-11-20T07:40:59.753Z,2.30
2018-11-20T07:43:34.176Z,2.30
2018-11-20T07:46:07.339Z,2.40
2018-11-20T07:48:57.782Z,2.40
2018-11-20T07:51:50.990Z,2.50
2018-11-20T07:54:25.566Z,2.50
2018-11-20T07:56:58.941Z,2.60
2018-11-20T07:59:32.477Z,2.60
2018-11-20T08:02:17.925Z,2.70
2018-11-20T08:05:09.838Z,2.70
2018-11-20T08:07:52.655Z,2.80
2018-11-20T08:10:50.177Z,2.80
2018-11-20T08:13:42.406Z,2.90
2018-11-20T08:16:35.610Z,2.90
2018-11-20T08:19:26.143Z,3.00
2018-11-20T08:25:18.195Z,3.00
2018-11-20T08:28:18.619Z,3.10
2018-11-20T08:34:14.522Z,3.10
2018-11-20T08:37:11.695Z,3.20
2018-11-20T08:40:05.160Z,3.20
2018-11-20T08:42:55.879Z,3.30
2018-11-20T08:45:49.064Z,3.30
2018-11-20T08:48:23.458Z,3.40
2018-11-20T08:51:16.871Z,3.40
2018-11-20T08:56:49.406Z,3.50
2018-11-20T08:59:27.649Z,3.50
2018-11-20T09:02:27.441Z,3.50
2018-11-20T09:16:51.607Z,3.70
2018-11-20T09:19:46.682Z,3.70
2018-11-20T09:22:15.680Z,3.70
2018-11-20T09:25:03.216Z,3.80
2018-11-20T09:27:58.800Z,3.80
2018-11-20T09:30:50.305Z,3.80
2018-11-20T09:33:41.927Z,3.80
2018-11-20T09:36:15.781Z,3.80
2018-11-20T09:42:05.486Z,3.90
2018-11-20T09:44:53.590Z,4.00
2018-11-20T09:47:50.656Z,4.00
2018-11-20T09:50:19.658Z,4.10
2018-11-20T09:53:11.994Z,4.10
2018-11-20T09:56:08.280Z,4.10
2018-11-20T09:58:42.969Z,4.20
2018-11-20T10:01:20.639Z,4.20
2018-11-20T10:06:45.135Z,4.30
2018-11-20T10:09:49.865Z,4.30
2018-11-20T10:12:41.246Z,4.30
2018-11-20T10:15:33.796Z,4.30
2018-11-20T10:18:08.509Z,4.30
2018-11-20T10:20:46.233Z,4.30
2018-11-20T10:23:37.917Z,4.40
2018-11-20T10:35:23.457Z,4.40
2018-11-20T10:38:17.057Z,4.50
2018-11-20T10:40:50.545Z,4.50
2018-11-20T10:43:45.530Z,4.50
2018-11-20T10:46:41.654Z,4.50
2018-11-20T10:52:26.783Z,4.60
2018-11-20T10:58:07.082Z,4.60
2018-11-20T11:03:17.757Z,4.80
2018-11-20T11:06:11.339Z,4.80
2018-11-20T11:09:06.773Z,4.90
2018-11-20T11:14:27.257Z,4.90
2018-11-20T11:17:31.064Z,5.00
2018-11-20T11:20:18.463Z,5.00
2018-11-20T11:22:52.295Z,5.10
2018-11-20T11:25:55.694Z,5.10
2018-11-20T11:31:22.404Z,5.10
2018-11-20T11:33:59.605Z,5.10
2018-11-20T11:42:01.499Z,5.20
2018-11-20T11:44:48.465Z,5.20
2018-11-20T11:47:49.293Z,5.10
2018-11-20T11:50:43.424Z,5.10
2018-11-20T11:53:38.317Z,5.10
2018-11-20T11:56:15.902Z,5.00
2018-11-20T12:04:34.693Z,4.90
2018-11-20T12:07:05.489Z,4.90
2018-11-20T12:10:02.064Z,4.80
2018-11-20T12:13:00.398Z,4.80
2018-11-20T12:15:53.702Z,4.60
2018-11-20T12:18:27.763Z,4.60
2018-11-20T12:21:18.577Z,4.60
2018-11-20T12:24:12.000Z,4.60
2018-11-20T12:26:42.402Z,4.50
2018-11-20T12:29:17.119Z,4.50
2018-11-20T12:32:09.058Z,4.50
2018-11-20T12:35:02.317Z,4.50
2018-11-20T12:37:54.423Z,4.60
2018-11-20T12:49:17.036Z,4.20
2018-11-20T12:52:11.301Z,4.20
2018-11-20T12:54:42.164Z,4.20
2018-11-20T13:00:32.660Z,4.10
2018-11-20T13:06:28.551Z,4.10
2018-11-20T13:09:01.981Z,4.10
2018-11-20T13:11:56.294Z,4.10
2018-11-20T13:14:40.964Z,4.10
2018-11-20T13:17:35.872Z,4.10
2018-11-20T13:29:00.019Z,4.00
2018-11-20T13:34:20.887Z,3.90
2018-11-20T13:39:54.005Z,3.90
2018-11-20T13:42:28.508Z,3.80
2018-11-20T13:48:29.711Z,3.90
2018-11-20T13:51:04.037Z,3.80
2018-11-20T13:53:54.691Z,3.80
2018-11-20T13:56:47.880Z,3.90
2018-11-20T14:02:06.330Z,3.90
2018-11-20T14:04:59.472Z,3.90
2018-11-20T14:07:50.288Z,3.90
2018-11-20T14:13:19.588Z,3.80
2018-11-20T14:16:10.770Z,3.80
2018-11-20T14:19:04.392Z,3.90
2018-11-20T14:24:59.388Z,3.90
2018-11-20T14:27:30.534Z,3.90
2018-11-20T14:30:04.247Z,3.90
2018-11-20T14:32:57.755Z,3.90
2018-11-20T14:35:51.083Z,3.90
2018-11-20T14:38:48.719Z,3.90
2018-11-20T14:41:44.950Z,3.90
2018-11-20T14:44:37.043Z,3.90
2018-11-20T14:47:11.573Z,3.90
2018-11-20T14:55:39.068Z,3.90
2018-11-20T14:58:16.472Z,3.90
2018-11-20T15:01:15.859Z,3.80
2018-11-20T15:04:11.154Z,3.90
2018-11-20T15:07:04.426Z,3.80
2018-11-20T15:09:38.674Z,3.90
2018-11-20T15:12:35.488Z,3.90
2018-11-20T15:23:26.143Z,3.90
2018-11-20T15:26:03.958Z,3.90
2018-11-20T15:28:54.244Z,3.90
2018-11-20T15:31:24.899Z,3.90
2018-11-20T15:37:10.541Z,3.90
2018-11-20T15:42:40.166Z,3.90
2018-11-20T15:48:21.359Z,3.90
2018-11-20T16:02:16.000Z,3.90
2018-11-20T16:07:42.365Z,3.90
2018-11-20T16:10:44.298Z,3.90
2018-11-20T16:13:35.935Z,3.90
2018-11-20T16:16:26.884Z,3.90
2018-11-20T16:19:16.951Z,3.90
2018-11-20T16:25:02.617Z,3.90
2018-11-20T16:27:47.297Z,3.90
2018-11-20T16:30:47.615Z,3.90
2018-11-20T16:35:52.221Z,3.90
2018-11-20T16:38:25.868Z,3.90
2018-11-20T16:41:00.067Z,3.90
2018-11-20T16:43:53.096Z,3.90
2018-11-20T16:46:46.784Z,3.90
2018-11-20T16:52:31.611Z,4.00
2018-11-20T16:55:28.251Z,4.00
2018-11-20T16:58:17.572Z,4.00
2018-11-20T17:03:47.886Z,4.00
2018-11-20T17:06:39.458Z,4.00
2018-11-20T17:09:36.187Z,3.90
2018-11-20T17:20:45.971Z,3.90
2018-11-20T17:26:09.802Z,3.90
2018-11-20T17:29:04.797Z,3.90
2018-11-20T17:31:39.040Z,3.90
2018-11-20T17:34:15.457Z,3.90
2018-11-20T17:36:52.920Z,3.90
2018-11-20T17:39:44.485Z,3.90
2018-11-20T17:42:37.943Z,3.90
2018-11-20T17:45:06.237Z,3.90
2018-11-20T17:47:58.914Z,3.90
2018-11-20T17:53:33.560Z,3.90
2018-11-20T17:56:27.605Z,3.90
2018-11-20T17:59:05.276Z,3.90
2018-11-20T18:01:55.661Z,3.90
2018-11-20T18:04:48.561Z,3.90
2018-11-20T18:10:15.044Z,4.00
2018-11-20T18:13:07.047Z,4.00
2018-11-20T18:15:57.874Z,4.00
2018-11-20T18:18:51.440Z,4.00
2018-11-20T18:21:43.816Z,4.00
2018-11-20T18:24:39.077Z,4.00
2018-11-20T18:27:18.696Z,3.90
2018-11-20T18:29:47.529Z,4.00
2018-11-20T18:32:44.032Z,4.00
2018-11-20T18:35:35.252Z,4.00
2018-11-20T18:38:13.070Z,4.00
2018-11-20T18:40:47.283Z,4.00
2018-11-20T18:43:40.807Z,4.00
2018-11-20T18:49:15.422Z,4.00
2018-11-20T18:52:06.538Z,4.10
2018-11-20T18:54:57.864Z,4.10
2018-11-20T18:57:25.942Z,4.00
2018-11-20T19:02:58.980Z,4.00
2018-11-20T19:05:50.138Z,4.00
2018-11-20T19:08:49.033Z,4.00
2018-11-20T19:14:11.023Z,4.00
2018-11-20T19:25:45.974Z,4.00
2018-11-20T19:28:13.980Z,4.00
2018-11-20T19:30:48.470Z,4.00
2018-11-20T19:36:41.290Z,4.10
2018-11-20T19:42:10.661Z,4.10
2018-11-20T19:44:44.443Z,4.10
2018-11-20T19:47:36.320Z,4.10
2018-11-20T19:50:31.830Z,4.10
2018-11-20T19:53:02.680Z,4.20
2018-11-20T19:55:37.157Z,4.20
2018-11-20T19:58:30.608Z,4.20
2018-11-20T20:04:00.819Z,4.20
2018-11-20T20:09:49.706Z,4.10
2018-11-20T20:15:48.752Z,4.20
2018-11-20T20:18:43.111Z,4.10
2018-11-20T20:24:36.963Z,4.20
2018-11-20T20:30:13.267Z,4.10
2018-11-20T20:32:44.946Z,4.20
2018-11-20T20:35:40.423Z,4.10
2018-11-20T20:41:13.550Z,4.10
2018-11-20T20:46:38.764Z,4.10
2018-11-20T20:52:15.474Z,4.10
2018-11-20T20:57:47.373Z,4.10
2018-11-20T21:00:17.814Z,4.10
2018-11-20T21:03:11.581Z,4.10
2018-11-20T21:08:31.990Z,4.10
2018-11-20T21:11:26.922Z,4.10
2018-11-20T21:14:01.263Z,4.10
2018-11-20T21:19:51.708Z,4.10
2018-11-20T21:22:40.073Z,4.00
2018-11-20T21:25:28.880Z,4.00
2018-11-20T21:27:59.522Z,4.00
2018-11-20T21:31:43.416Z,4.00
2018-11-20T21:34:55.109Z,4.00
2018-11-20T21:41:07.610Z,4.00
2018-11-20T21:44:07.930Z,4.00
2018-11-20T21:46:50.241Z,4.00
2018-11-20T21:52:25.821Z,3.90
2018-11-20T22:01:30.715Z,3.90
2018-11-20T22:04:31.788Z,3.80
2018-11-20T22:07:35.276Z,3.90
2018-11-20T22:10:38.883Z,3.80
2018-11-20T22:13:34.458Z,3.80
2018-11-20T22:16:35.279Z,3.80
2018-11-20T22:25:24.756Z,3.80
2018-11-20T22:31:14.119Z,3.80
2018-11-20T22:33:55.364Z,3.70
2018-11-20T22:36:58.204Z,3.70
2018-11-20T22:39:59.231Z,3.70
2018-11-20T22:43:00.195Z,3.70
2018-11-20T22:46:03.818Z,3.70
2018-11-20T22:49:04.727Z,3.70
2018-11-20T22:52:04.930Z,3.80
2018-11-20T22:55:05.496Z,3.80
2018-11-20T22:57:58.205Z,3.80
2018-11-20T23:00:46.571Z,3.80
2018-11-20T23:09:07.557Z,3.80
2018-11-20T23:11:49.719Z,3.80
2018-11-20T23:14:32.289Z,3.80
2018-11-20T23:17:14.533Z,3.80
2018-11-20T23:19:58.527Z,3.80
2018-11-20T23:22:42.546Z,3.80
2018-11-20T23:25:24.436Z,3.70
2018-11-20T23:28:06.089Z,3.70
2018-11-20T23:30:47.837Z,3.70
2018-11-20T23:33:29.254Z,3.70
2018-11-20T23:36:11.177Z,3.60
2018-11-20T23:38:53.488Z,3.60
2018-11-20T23:41:35.607Z,3.60
2018-11-20T23:44:17.424Z,3.50
2018-11-20T23:46:59.721Z,3.50
2018-11-20T23:49:42.333Z,3.40
